sensor_id;sensor_type;location;lat;lon;timestamp;pressure;altitude;pressure_sealevel;temperature;humidity
51452;BME280;37521;52.020;-1.740;2023-07-30T00:01:07;99101.44;;;11.94;100.00
51452;BME280;37521;52.020;-1.740;2023-07-30T00:03:38;99111.41;;;11.90;100.00
51452;BME280;37521;52.020;-1.740;2023-07-30T00:06:08;99107.88;;;11.90;100.00
51452;BME280;37521;52.020;-1.740;2023-07-30T00:08:37;99100.38;;;11.84;100.00
51452;BME280;37521;52.020;-1.740;2023-07-30T00:11:06;99106.69;;;11.81;100.00
51452;BME280;37521;52.020;-1.740;2023-07-30T00:13:35;99114.81;;;11.78;100.00
51452;BME280;37521;52.020;-1.740;2023-07-30T00:16:03;99116.69;;;11.76;100.00
51452;BME280;37521;52.020;-1.740;2023-07-30T00:18:32;99120.28;;;11.75;100.00
51452;BME280;37521;52.020;-1.740;2023-07-30T00:21:03;99118.81;;;11.71;100.00
51452;BME280;37521;52.020;-1.740;2023-07-30T00:23:32;99106.72;;;11.67;100.00
51452;BME280;37521;52.020;-1.740;2023-07-30T00:26:00;99110.31;;;11.66;100.00
51452;BME280;37521;52.020;-1.740;2023-07-30T00:28:29;99113.06;;;11.64;100.00
51452;BME280;37521;52.020;-1.740;2023-07-30T00:30:57;99107.78;;;11.64;100.00
51452;BME280;37521;52.020;-1.740;2023-07-30T00:33:27;99113.91;;;11.65;100.00
51452;BME280;37521;52.020;-1.740;2023-07-30T00:35:56;99112.22;;;11.64;100.00
51452;BME280;37521;52.020;-1.740;2023-07-30T00:38:26;99121.00;;;11.64;100.00
51452;BME280;37521;52.020;-1.740;2023-07-30T00:40:55;99120.91;;;11.66;100.00
51452;BME280;37521;52.020;-1.740;2023-07-30T00:43:24;99119.84;;;11.68;100.00
51452;BME280;37521;52.020;-1.740;2023-07-30T00:45:52;99127.88;;;11.67;100.00
51452;BME280;37521;52.020;-1.740;2023-07-30T00:48:22;99122.31;;;11.71;100.00
51452;BME280;37521;52.020;-1.740;2023-07-30T00:50:51;99127.47;;;11.73;100.00
51452;BME280;37521;52.020;-1.740;2023-07-30T00:53:22;99121.63;;;11.68;100.00
51452;BME280;37521;52.020;-1.740;2023-07-30T00:55:54;99120.91;;;11.66;100.00
51452;BME280;37521;52.020;-1.740;2023-07-30T00:58:23;99130.63;;;11.65;100.00
51452;BME280;37521;52.020;-1.740;2023-07-30T01:00:52;99132.44;;;11.65;100.00
51452;BME280;37521;52.020;-1.740;2023-07-30T01:03:21;99131.88;;;11.60;100.00
51452;BME280;37521;52.020;-1.740;2023-07-30T01:05:51;99126.75;;;11.57;100.00
51452;BME280;37521;52.020;-1.740;2023-07-30T01:08:20;99122.53;;;11.54;100.00
51452;BME280;37521;52.020;-1.740;2023-07-30T01:10:50;99125.16;;;11.54;100.00
51452;BME280;37521;52.020;-1.740;2023-07-30T01:13:21;99121.69;;;11.54;100.00
51452;BME280;37521;52.020;-1.740;2023-07-30T01:15:51;99116.59;;;11.51;100.00
51452;BME280;37521;52.020;-1.740;2023-07-30T01:18:20;99123.59;;;11.52;100.00
51452;BME280;37521;52.020;-1.740;2023-07-30T01:20:57;99120.94;;;11.52;100.00
51452;BME280;37521;52.020;-1.740;2023-07-30T01:23:27;99123.66;;;11.50;100.00
51452;BME280;37521;52.020;-1.740;2023-07-30T01:25:59;99119.44;;;11.48;100.00
51452;BME280;37521;52.020;-1.740;2023-07-30T01:28:33;99113.41;;;11.45;100.00
51452;BME280;37521;52.020;-1.740;2023-07-30T01:31:05;99114.25;;;11.46;100.00
51452;BME280;37521;52.020;-1.740;2023-07-30T01:33:34;99113.41;;;11.45;100.00
51452;BME280;37521;52.020;-1.740;2023-07-30T01:36:08;99113.19;;;11.49;100.00
51452;BME280;37521;52.020;-1.740;2023-07-30T01:38:41;99116.59;;;11.51;100.00
51452;BME280;37521;52.020;-1.740;2023-07-30T01:41:11;99118.31;;;11.52;100.00
51452;BME280;37521;52.020;-1.740;2023-07-30T01:43:40;99112.91;;;11.53;100.00
51452;BME280;37521;52.020;-1.740;2023-07-30T01:46:08;99106.88;;;11.51;100.00
51452;BME280;37521;52.020;-1.740;2023-07-30T01:48:37;99114.25;;;11.46;100.00
51452;BME280;37521;52.020;-1.740;2023-07-30T01:51:09;99116.34;;;11.41;100.00
51452;BME280;37521;52.020;-1.740;2023-07-30T01:53:38;99120.13;;;11.37;100.00
51452;BME280;37521;52.020;-1.740;2023-07-30T01:56:08;99115.88;;;11.34;100.00
51452;BME280;37521;52.020;-1.740;2023-07-30T01:58:37;99119.47;;;11.33;100.00
51452;BME280;37521;52.020;-1.740;2023-07-30T02:01:05;99113.34;;;11.33;100.00
51452;BME280;37521;52.020;-1.740;2023-07-30T02:03:35;99113.44;;;11.31;100.00
51452;BME280;37521;52.020;-1.740;2023-07-30T02:06:04;99117.22;;;11.27;100.00
51452;BME280;37521;52.020;-1.740;2023-07-30T02:08:35;99127.03;;;11.25;100.00
51452;BME280;37521;52.020;-1.740;2023-07-30T02:11:06;99132.31;;;11.25;100.00
51452;BME280;37521;52.020;-1.740;2023-07-30T02:13:35;99122.59;;;11.26;100.00
51452;BME280;37521;52.020;-1.740;2023-07-30T02:16:04;99130.63;;;11.24;100.00
51452;BME280;37521;52.020;-1.740;2023-07-30T02:18:33;99136.75;;;11.25;100.00
51452;BME280;37521;52.020;-1.740;2023-07-30T02:21:01;99140.03;;;11.28;100.00
51452;BME280;37521;52.020;-1.740;2023-07-30T02:23:30;99135.31;;;11.33;100.00
51452;BME280;37521;52.020;-1.740;2023-07-30T02:26:01;99135.88;;;11.38;100.00
51452;BME280;37521;52.020;-1.740;2023-07-30T02:28:29;99134.09;;;11.39;100.00
51452;BME280;37521;52.020;-1.740;2023-07-30T02:30:58;99126.63;;;11.45;100.00
51452;BME280;37521;52.020;-1.740;2023-07-30T02:33:28;99120.94;;;11.52;100.00
51452;BME280;37521;52.020;-1.740;2023-07-30T02:35:56;99118.75;;;11.58;100.00
51452;BME280;37521;52.020;-1.740;2023-07-30T02:38:25;99124.88;;;11.59;100.00
51452;BME280;37521;52.020;-1.740;2023-07-30T02:40:53;99120.63;;;11.56;100.00
51452;BME280;37521;52.020;-1.740;2023-07-30T02:43:23;99118.09;;;11.55;100.00
51452;BME280;37521;52.020;-1.740;2023-07-30T02:45:53;99112.81;;;11.55;100.00
51452;BME280;37521;52.020;-1.740;2023-07-30T02:48:22;99120.63;;;11.56;100.00
51452;BME280;37521;52.020;-1.740;2023-07-30T02:50:51;99116.00;;;11.60;100.00
51452;BME280;37521;52.020;-1.740;2023-07-30T02:53:20;99113.91;;;11.65;100.00
51452;BME280;37521;52.020;-1.740;2023-07-30T02:55:50;99110.50;;;11.63;100.00
51452;BME280;37521;52.020;-1.740;2023-07-30T02:58:18;99120.22;;;11.62;100.00
51452;BME280;37521;52.020;-1.740;2023-07-30T03:00:48;99122.97;;;11.61;100.00
51452;BME280;37521;52.020;-1.740;2023-07-30T03:03:17;99121.56;;;11.55;100.00
51452;BME280;37521;52.020;-1.740;2023-07-30T03:05:46;99117.53;;;11.50;100.00
51452;BME280;37521;52.020;-1.740;2023-07-30T03:08:14;99116.78;;;11.48;100.00
51452;BME280;37521;52.020;-1.740;2023-07-30T03:10:44;99119.25;;;11.51;100.00
51452;BME280;37521;52.020;-1.740;2023-07-30T03:13:12;99110.44;;;11.50;100.00
51452;BME280;37521;52.020;-1.740;2023-07-30T03:15:41;99101.66;;;11.50;100.00
51452;BME280;37521;52.020;-1.740;2023-07-30T03:18:13;99101.66;;;11.50;100.00
51452;BME280;37521;52.020;-1.740;2023-07-30T03:20:42;99109.53;;;11.51;100.00
51452;BME280;37521;52.020;-1.740;2023-07-30T03:23:11;99103.38;;;11.51;100.00
51452;BME280;37521;52.020;-1.740;2023-07-30T03:25:40;99100.53;;;11.54;100.00
51452;BME280;37521;52.020;-1.740;2023-07-30T03:28:08;99104.75;;;11.56;100.00
51452;BME280;37521;52.020;-1.740;2023-07-30T03:30:38;99103.91;;;11.56;100.00
51452;BME280;37521;52.020;-1.740;2023-07-30T03:33:06;99105.81;;;11.54;100.00
51452;BME280;37521;52.020;-1.740;2023-07-30T03:35:36;99106.56;;;11.56;100.00
51452;BME280;37521;52.020;-1.740;2023-07-30T03:38:06;99099.47;;;11.56;100.00
51452;BME280;37521;52.020;-1.740;2023-07-30T03:40:34;99107.34;;;11.58;100.00
51452;BME280;37521;52.020;-1.740;2023-07-30T03:43:04;99108.25;;;11.57;100.00
51452;BME280;37521;52.020;-1.740;2023-07-30T03:45:32;99109.19;;;11.56;100.00
51452;BME280;37521;52.020;-1.740;2023-07-30T03:48:03;99111.78;;;11.57;100.00
51452;BME280;37521;52.020;-1.740;2023-07-30T03:50:31;99112.63;;;11.58;100.00
51452;BME280;37521;52.020;-1.740;2023-07-30T03:53:02;99115.25;;;11.58;100.00
51452;BME280;37521;52.020;-1.740;2023-07-30T03:55:32;99112.41;;;11.61;100.00
51452;BME280;37521;52.020;-1.740;2023-07-30T03:58:03;99109.75;;;11.61;100.00
51452;BME280;37521;52.020;-1.740;2023-07-30T04:00:32;99114.31;;;11.59;100.00
51452;BME280;37521;52.020;-1.740;2023-07-30T04:03:01;99116.00;;;11.60;100.00
51452;BME280;37521;52.020;-1.740;2023-07-30T04:05:30;99123.81;;;11.61;100.00
51452;BME280;37521;52.020;-1.740;2023-07-30T04:07:59;99112.41;;;11.61;100.00
51452;BME280;37521;52.020;-1.740;2023-07-30T04:10:30;99113.34;;;11.60;100.00
51452;BME280;37521;52.020;-1.740;2023-07-30T04:12:59;99126.56;;;11.60;100.00
51452;BME280;37521;52.020;-1.740;2023-07-30T04:15:28;99111.56;;;11.60;100.00
51452;BME280;37521;52.020;-1.740;2023-07-30T04:17:56;99124.66;;;11.62;100.00
51452;BME280;37521;52.020;-1.740;2023-07-30T04:20:26;99130.72;;;11.64;100.00
51452;BME280;37521;52.020;-1.740;2023-07-30T04:22:55;99136.75;;;11.66;100.00
51452;BME280;37521;52.020;-1.740;2023-07-30T04:25:25;99133.16;;;11.67;100.00
51452;BME280;37521;52.020;-1.740;2023-07-30T04:27:55;99133.91;;;11.69;100.00
51452;BME280;37521;52.020;-1.740;2023-07-30T04:30:25;99135.91;;;11.65;100.00
51452;BME280;37521;52.020;-1.740;2023-07-30T04:32:55;99131.47;;;11.66;100.00
51452;BME280;37521;52.020;-1.740;2023-07-30T04:35:23;99133.16;;;11.67;100.00
51452;BME280;37521;52.020;-1.740;2023-07-30T04:37:52;99141.09;;;11.67;100.00
51452;BME280;37521;52.020;-1.740;2023-07-30T04:40:21;99144.59;;;11.67;100.00
51452;BME280;37521;52.020;-1.740;2023-07-30T04:42:50;99163.19;;;11.66;100.00
51452;BME280;37521;52.020;-1.740;2023-07-30T04:45:21;99161.50;;;11.65;100.00
51452;BME280;37521;52.020;-1.740;2023-07-30T04:47:51;99169.97;;;11.70;100.00
51452;BME280;37521;52.020;-1.740;2023-07-30T04:50:19;99164.69;;;11.70;100.00
51452;BME280;37521;52.020;-1.740;2023-07-30T04:52:48;99163.00;;;11.69;100.00
51452;BME280;37521;52.020;-1.740;2023-07-30T04:55:17;99162.91;;;11.70;100.00
51452;BME280;37521;52.020;-1.740;2023-07-30T04:57:45;99169.78;;;11.73;100.00
51452;BME280;37521;52.020;-1.740;2023-07-30T05:00:14;99169.78;;;11.73;100.00
51452;BME280;37521;52.020;-1.740;2023-07-30T05:02:46;99163.75;;;11.71;100.00
51452;BME280;37521;52.020;-1.740;2023-07-30T05:05:15;99177.00;;;11.71;100.00
51452;BME280;37521;52.020;-1.740;2023-07-30T05:07:44;99164.50;;;11.73;100.00
51452;BME280;37521;52.020;-1.740;2023-07-30T05:10:12;99179.97;;;11.79;100.00
51452;BME280;37521;52.020;-1.740;2023-07-30T05:12:42;99175.19;;;11.86;100.00
51452;BME280;37521;52.020;-1.740;2023-07-30T05:15:10;99177.31;;;11.93;100.00
51452;BME280;37521;52.020;-1.740;2023-07-30T05:17:40;99178.63;;;12.00;100.00
51452;BME280;37521;52.020;-1.740;2023-07-30T05:20:11;99171.22;;;12.06;100.00
51452;BME280;37521;52.020;-1.740;2023-07-30T05:22:40;99152.59;;;12.07;100.00
51452;BME280;37521;52.020;-1.740;2023-07-30T05:25:09;99163.28;;;12.06;100.00
51452;BME280;37521;52.020;-1.740;2023-07-30T05:27:39;99161.69;;;12.03;100.00
51452;BME280;37521;52.020;-1.740;2023-07-30T05:30:08;99154.59;;;12.04;100.00
51452;BME280;37521;52.020;-1.740;2023-07-30T05:32:37;99154.41;;;12.07;100.00
51452;BME280;37521;52.020;-1.740;2023-07-30T05:35:06;99154.28;;;12.08;100.00
51452;BME280;37521;52.020;-1.740;2023-07-30T05:37:36;99161.19;;;12.11;100.00
51452;BME280;37521;52.020;-1.740;2023-07-30T05:40:06;99158.34;;;12.14;100.00
51452;BME280;37521;52.020;-1.740;2023-07-30T05:42:35;99164.47;;;12.14;100.00
51452;BME280;37521;52.020;-1.740;2023-07-30T05:45:04;99170.72;;;12.13;100.00
51452;BME280;37521;52.020;-1.740;2023-07-30T05:47:33;99177.59;;;12.16;100.00
51452;BME280;37521;52.020;-1.740;2023-07-30T05:50:02;99189.69;;;12.20;100.00
51452;BME280;37521;52.020;-1.740;2023-07-30T05:52:31;99187.59;;;12.25;100.00
51452;BME280;37521;52.020;-1.740;2023-07-30T05:55:01;99192.47;;;12.31;100.00
51452;BME280;37521;52.020;-1.740;2023-07-30T05:57:30;99192.16;;;12.36;100.00
51452;BME280;37521;52.020;-1.740;2023-07-30T05:59:58;99186.44;;;12.42;100.00
51452;BME280;37521;52.020;-1.740;2023-07-30T06:02:48;99189.88;;;12.44;100.00
51452;BME280;37521;52.020;-1.740;2023-07-30T06:05:17;99192.41;;;12.45;100.00
51452;BME280;37521;52.020;-1.740;2023-07-30T06:07:45;99191.44;;;12.46;100.00
51452;BME280;37521;52.020;-1.740;2023-07-30T06:10:16;99189.53;;;12.48;100.00
51452;BME280;37521;52.020;-1.740;2023-07-30T06:12:45;99205.97;;;12.53;100.00
51452;BME280;37521;52.020;-1.740;2023-07-30T06:15:14;99196.13;;;12.55;100.00
51452;BME280;37521;52.020;-1.740;2023-07-30T06:17:44;99210.84;;;12.60;100.00
51452;BME280;37521;52.020;-1.740;2023-07-30T06:20:12;99193.06;;;12.62;100.00
51452;BME280;37521;52.020;-1.740;2023-07-30T06:22:41;99194.66;;;12.64;100.00
51452;BME280;37521;52.020;-1.740;2023-07-30T06:25:09;99206.53;;;12.71;100.00
51452;BME280;37521;52.020;-1.740;2023-07-30T06:27:39;99211.31;;;12.79;100.00
51452;BME280;37521;52.020;-1.740;2023-07-30T06:30:09;99206.75;;;12.81;100.00
51452;BME280;37521;52.020;-1.740;2023-07-30T06:32:37;99208.25;;;12.85;100.00
51452;BME280;37521;52.020;-1.740;2023-07-30T06:35:07;99211.63;;;12.87;100.00
51452;BME280;37521;52.020;-1.740;2023-07-30T06:37:35;99216.50;;;12.93;100.00
51452;BME280;37521;52.020;-1.740;2023-07-30T06:40:06;99224.78;;;13.01;100.00
51452;BME280;37521;52.020;-1.740;2023-07-30T06:42:35;99224.38;;;13.07;100.00
51452;BME280;37521;52.020;-1.740;2023-07-30T06:45:07;99227.84;;;13.08;100.00
51452;BME280;37521;52.020;-1.740;2023-07-30T06:47:35;99226.16;;;13.07;100.00
51452;BME280;37521;52.020;-1.740;2023-07-30T06:50:05;99223.28;;;13.10;100.00
51452;BME280;37521;52.020;-1.740;2023-07-30T06:52:35;99229.00;;;13.17;100.00
51452;BME280;37521;52.020;-1.740;2023-07-30T06:55:05;99224.47;;;13.19;100.00
51452;BME280;37521;52.020;-1.740;2023-07-30T06:57:34;99211.41;;;13.16;100.00
51452;BME280;37521;52.020;-1.740;2023-07-30T07:00:05;99213.88;;;13.19;100.00
51452;BME280;37521;52.020;-1.740;2023-07-30T07:02:35;99212.72;;;13.23;100.00
51452;BME280;37521;52.020;-1.740;2023-07-30T07:05:05;99215.16;;;13.26;100.00
51452;BME280;37521;52.020;-1.740;2023-07-30T07:07:34;99214.75;;;13.32;100.00
51452;BME280;37521;52.020;-1.740;2023-07-30T07:10:05;99215.47;;;13.34;100.00
51452;BME280;37521;52.020;-1.740;2023-07-30T07:12:33;99216.97;;;13.38;100.00
51452;BME280;37521;52.020;-1.740;2023-07-30T07:15:06;99214.63;;;13.46;100.00
51452;BME280;37521;52.020;-1.740;2023-07-30T07:17:34;99212.69;;;13.48;100.00
51452;BME280;37521;52.020;-1.740;2023-07-30T07:20:06;99210.56;;;13.53;100.00
51452;BME280;37521;52.020;-1.740;2023-07-30T07:22:36;99220.94;;;13.56;100.00
51452;BME280;37521;52.020;-1.740;2023-07-30T07:25:06;99225.41;;;13.56;100.00
51452;BME280;37521;52.020;-1.740;2023-07-30T07:27:36;99226.56;;;13.65;100.00
51452;BME280;37521;52.020;-1.740;2023-07-30T07:30:07;99223.47;;;13.71;100.00
51452;BME280;37521;52.020;-1.740;2023-07-30T07:32:36;99228.16;;;13.67;100.00
51452;BME280;37521;52.020;-1.740;2023-07-30T07:35:06;99230.69;;;13.69;100.00
51452;BME280;37521;52.020;-1.740;2023-07-30T07:37:36;99233.03;;;13.73;100.00
51452;BME280;37521;52.020;-1.740;2023-07-30T07:40:19;99239.91;;;13.76;100.00
51452;BME280;37521;52.020;-1.740;2023-07-30T07:42:47;99232.16;;;13.85;100.00
51452;BME280;37521;52.020;-1.740;2023-07-30T07:45:18;99246.13;;;13.87;100.00
51452;BME280;37521;52.020;-1.740;2023-07-30T07:47:47;99253.13;;;13.88;100.00
51452;BME280;37521;52.020;-1.740;2023-07-30T07:50:16;99252.41;;;13.86;100.00
51452;BME280;37521;52.020;-1.740;2023-07-30T07:52:45;99260.97;;;13.90;100.00
51452;BME280;37521;52.020;-1.740;2023-07-30T07:55:16;99262.59;;;13.93;100.00
51452;BME280;37521;52.020;-1.740;2023-07-30T07:57:45;99269.91;;;13.89;100.00
51452;BME280;37521;52.020;-1.740;2023-07-30T08:00:13;99263.19;;;13.96;100.00
51452;BME280;37521;52.020;-1.740;2023-07-30T08:02:45;99264.69;;;14.00;100.00
51452;BME280;37521;52.020;-1.740;2023-07-30T08:05:17;99266.50;;;14.00;100.00
51452;BME280;37521;52.020;-1.740;2023-07-30T08:07:48;99270.16;;;14.10;100.00
51452;BME280;37521;52.020;-1.740;2023-07-30T08:10:17;99273.00;;;14.20;100.00
51452;BME280;37521;52.020;-1.740;2023-07-30T08:12:46;99266.94;;;14.17;100.00
51452;BME280;37521;52.020;-1.740;2023-07-30T08:15:16;99269.38;;;14.21;100.00
51452;BME280;37521;52.020;-1.740;2023-07-30T08:17:47;99277.88;;;14.26;100.00
51452;BME280;37521;52.020;-1.740;2023-07-30T08:20:16;99280.88;;;14.45;100.00
51452;BME280;37521;52.020;-1.740;2023-07-30T08:22:45;99285.41;;;14.56;100.00
51452;BME280;37521;52.020;-1.740;2023-07-30T08:25:14;99280.88;;;14.45;100.00
51452;BME280;37521;52.020;-1.740;2023-07-30T08:27:42;99271.66;;;14.38;100.00
51452;BME280;37521;52.020;-1.740;2023-07-30T08:30:12;99278.56;;;14.40;100.00
51452;BME280;37521;52.020;-1.740;2023-07-30T08:32:42;99281.09;;;14.42;100.00
51452;BME280;37521;52.020;-1.740;2023-07-30T08:35:13;99273.94;;;14.55;100.00
51452;BME280;37521;52.020;-1.740;2023-07-30T08:37:42;99271.34;;;14.66;100.00
51452;BME280;37521;52.020;-1.740;2023-07-30T08:40:11;99263.63;;;14.75;100.00
51452;BME280;37521;52.020;-1.740;2023-07-30T08:42:43;99267.53;;;14.82;100.00
51452;BME280;37521;52.020;-1.740;2023-07-30T08:45:12;99259.81;;;14.90;100.00
51452;BME280;37521;52.020;-1.740;2023-07-30T08:47:40;99272.13;;;14.91;100.00
51452;BME280;37521;52.020;-1.740;2023-07-30T08:50:10;99267.19;;;14.86;100.00
51452;BME280;37521;52.020;-1.740;2023-07-30T08:52:41;99265.97;;;14.90;100.00
51452;BME280;37521;52.020;-1.740;2023-07-30T08:55:12;99266.84;;;15.02;100.00
51452;BME280;37521;52.020;-1.740;2023-07-30T08:57:41;99277.53;;;15.13;100.00
51452;BME280;37521;52.020;-1.740;2023-07-30T09:00:15;99290.81;;;15.24;100.00
51452;BME280;37521;52.020;-1.740;2023-07-30T09:02:47;99288.91;;;15.38;100.00
51452;BME280;37521;52.020;-1.740;2023-07-30T09:05:16;99288.66;;;15.30;100.00
51452;BME280;37521;52.020;-1.740;2023-07-30T09:07:48;99289.88;;;15.25;100.00
51452;BME280;37521;52.020;-1.740;2023-07-30T09:10:17;99288.41;;;15.21;100.00
51452;BME280;37521;52.020;-1.740;2023-07-30T09:12:45;99289.34;;;15.09;100.00
51452;BME280;37521;52.020;-1.740;2023-07-30T09:15:29;99286.56;;;15.11;100.00
51452;BME280;37521;52.020;-1.740;2023-07-30T09:17:58;99280.56;;;15.20;100.00
51452;BME280;37521;52.020;-1.740;2023-07-30T09:20:30;99290.34;;;15.19;100.00
51452;BME280;37521;52.020;-1.740;2023-07-30T09:23:09;99286.94;;;15.17;100.00
51452;BME280;37521;52.020;-1.740;2023-07-30T09:25:38;99279.97;;;15.27;100.00
51452;BME280;37521;52.020;-1.740;2023-07-30T09:28:08;99284.09;;;15.43;100.00
51452;BME280;37521;52.020;-1.740;2023-07-30T09:30:36;99291.00;;;15.45;100.00
51452;BME280;37521;52.020;-1.740;2023-07-30T09:33:05;99294.97;;;15.51;100.00
51452;BME280;37521;52.020;-1.740;2023-07-30T09:35:33;99291.75;;;15.70;100.00
51452;BME280;37521;52.020;-1.740;2023-07-30T09:38:03;99288.22;;;16.03;100.00
51452;BME280;37521;52.020;-1.740;2023-07-30T09:40:35;99283.72;;;16.15;100.00
51452;BME280;37521;52.020;-1.740;2023-07-30T09:43:06;99285.53;;;16.25;100.00
51452;BME280;37521;52.020;-1.740;2023-07-30T09:45:35;99278.00;;;16.30;100.00
51452;BME280;37521;52.020;-1.740;2023-07-30T09:48:06;99281.41;;;16.32;100.00
51452;BME280;37521;52.020;-1.740;2023-07-30T09:50:36;99273.34;;;16.44;100.00
51452;BME280;37521;52.020;-1.740;2023-07-30T09:53:05;99267.97;;;16.66;100.00
51452;BME280;37521;52.020;-1.740;2023-07-30T09:55:36;99261.69;;;17.09;100.00
51452;BME280;37521;52.020;-1.740;2023-07-30T09:58:04;99266.97;;;17.20;100.00
51452;BME280;37521;52.020;-1.740;2023-07-30T10:00:38;99274.38;;;16.96;100.00
51452;BME280;37521;52.020;-1.740;2023-07-30T10:03:07;99270.88;;;16.74;100.00
51452;BME280;37521;52.020;-1.740;2023-07-30T10:05:37;99272.44;;;16.66;100.00
51452;BME280;37521;52.020;-1.740;2023-07-30T10:08:09;99283.13;;;16.66;100.00
51452;BME280;37521;52.020;-1.740;2023-07-30T10:10:41;99280.47;;;16.54;100.00
51452;BME280;37521;52.020;-1.740;2023-07-30T10:13:12;99270.59;;;16.45;100.00
51452;BME280;37521;52.020;-1.740;2023-07-30T10:15:41;99287.66;;;16.43;100.00
51452;BME280;37521;52.020;-1.740;2023-07-30T10:18:11;99295.09;;;16.28;100.00
51452;BME280;37521;52.020;-1.740;2023-07-30T10:20:40;99302.50;;;16.13;100.00
51452;BME280;37521;52.020;-1.740;2023-07-30T10:23:09;99293.53;;;16.03;100.00
51452;BME280;37521;52.020;-1.740;2023-07-30T10:25:46;99308.94;;;15.88;100.00
51452;BME280;37521;52.020;-1.740;2023-07-30T10:28:31;99294.06;;;15.74;100.00
51452;BME280;37521;52.020;-1.740;2023-07-30T10:31:05;99301.28;;;15.61;100.00
51452;BME280;37521;52.020;-1.740;2023-07-30T10:33:47;99295.03;;;15.62;100.00
51452;BME280;37521;52.020;-1.740;2023-07-30T10:36:18;99287.97;;;15.61;100.00
51452;BME280;37521;52.020;-1.740;2023-07-30T10:38:47;99297.06;;;15.59;100.00
51452;BME280;37521;52.020;-1.740;2023-07-30T10:41:19;99303.94;;;15.61;100.00
51452;BME280;37521;52.020;-1.740;2023-07-30T10:43:50;99290.53;;;15.63;100.00
51452;BME280;37521;52.020;-1.740;2023-07-30T10:46:19;99296.47;;;15.77;100.00
51452;BME280;37521;52.020;-1.740;2023-07-30T10:48:48;99295.50;;;15.90;100.00
51452;BME280;37521;52.020;-1.740;2023-07-30T10:51:18;99291.38;;;15.97;100.00
51452;BME280;37521;52.020;-1.740;2023-07-30T10:53:48;99286.88;;;15.97;100.00
51452;BME280;37521;52.020;-1.740;2023-07-30T10:56:22;99292.34;;;16.07;100.00
51452;BME280;37521;52.020;-1.740;2023-07-30T10:58:51;99294.03;;;16.08;100.00
51452;BME280;37521;52.020;-1.740;2023-07-30T11:01:24;99284.84;;;16.12;100.00
51452;BME280;37521;52.020;-1.740;2023-07-30T11:03:53;99290.34;;;16.31;100.00
51452;BME280;37521;52.020;-1.740;2023-07-30T11:06:23;99286.56;;;16.45;100.00
51452;BME280;37521;52.020;-1.740;2023-07-30T11:08:52;99282.81;;;16.48;100.00
51452;BME280;37521;52.020;-1.740;2023-07-30T11:11:22;99284.63;;;16.47;100.00
51452;BME280;37521;52.020;-1.740;2023-07-30T11:13:52;99293.25;;;16.40;100.00
51452;BME280;37521;52.020;-1.740;2023-07-30T11:16:21;99290.69;;;16.38;100.00
51452;BME280;37521;52.020;-1.740;2023-07-30T11:18:50;99293.25;;;16.40;100.00
51452;BME280;37521;52.020;-1.740;2023-07-30T11:21:18;99290.34;;;16.31;100.00
51452;BME280;37521;52.020;-1.740;2023-07-30T11:23:50;99295.31;;;16.25;100.00
51452;BME280;37521;52.020;-1.740;2023-07-30T11:26:19;99288.44;;;16.22;100.00
51452;BME280;37521;52.020;-1.740;2023-07-30T11:28:50;99294.47;;;16.24;100.00
51452;BME280;37521;52.020;-1.740;2023-07-30T11:31:20;99305.59;;;16.29;100.00
51452;BME280;37521;52.020;-1.740;2023-07-30T11:33:50;99297.97;;;16.25;100.00
51452;BME280;37521;52.020;-1.740;2023-07-30T11:36:22;99302.59;;;16.23;100.00
51452;BME280;37521;52.020;-1.740;2023-07-30T11:38:51;99282.88;;;16.14;100.00
51452;BME280;37521;52.020;-1.740;2023-07-30T11:41:23;99299.63;;;16.05;100.00
51452;BME280;37521;52.020;-1.740;2023-07-30T11:43:54;99295.50;;;16.01;100.00
51452;BME280;37521;52.020;-1.740;2023-07-30T11:46:23;99303.72;;;15.98;100.00
51452;BME280;37521;52.020;-1.740;2023-07-30T11:49:10;99303.25;;;15.93;100.00
51452;BME280;37521;52.020;-1.740;2023-07-30T11:51:41;99308.09;;;15.99;100.00
51452;BME280;37521;52.020;-1.740;2023-07-30T11:54:19;99299.50;;;16.06;100.00
51452;BME280;37521;52.020;-1.740;2023-07-30T11:56:54;99296.78;;;16.29;100.00
51452;BME280;37521;52.020;-1.740;2023-07-30T11:59:24;99307.81;;;16.68;100.00
51452;BME280;37521;52.020;-1.740;2023-07-30T12:01:53;99297.38;;;16.65;100.00
51452;BME280;37521;52.020;-1.740;2023-07-30T12:04:24;99300.28;;;16.41;100.00
51452;BME280;37521;52.020;-1.740;2023-07-30T12:06:55;99302.94;;;16.29;100.00
51452;BME280;37521;52.020;-1.740;2023-07-30T12:09:24;99304.91;;;16.27;100.00
51452;BME280;37521;52.020;-1.740;2023-07-30T12:11:55;99301.59;;;16.35;100.00
51452;BME280;37521;52.020;-1.740;2023-07-30T12:14:26;99303.41;;;16.46;100.00
51452;BME280;37521;52.020;-1.740;2023-07-30T12:16:59;99307.72;;;16.58;100.00
51452;BME280;37521;52.020;-1.740;2023-07-30T12:19:28;99305.56;;;16.52;100.00
51452;BME280;37521;52.020;-1.740;2023-07-30T12:21:56;99309.53;;;16.14;100.00
51452;BME280;37521;52.020;-1.740;2023-07-30T12:24:26;99313.66;;;15.73;100.00
51452;BME280;37521;52.020;-1.740;2023-07-30T12:26:54;99322.94;;;15.45;100.00
51452;BME280;37521;52.020;-1.740;2023-07-30T12:29:25;99320.25;;;15.34;100.00
51452;BME280;37521;52.020;-1.740;2023-07-30T12:31:54;99326.94;;;15.05;100.00
51452;BME280;37521;52.020;-1.740;2023-07-30T12:34:23;99342.06;;;14.80;100.00
51452;BME280;37521;52.020;-1.740;2023-07-30T12:36:53;99329.41;;;14.60;100.00
51452;BME280;37521;52.020;-1.740;2023-07-30T12:39:23;99339.25;;;14.34;100.00
51452;BME280;37521;52.020;-1.740;2023-07-30T12:41:53;99344.59;;;14.08;100.00
51452;BME280;37521;52.020;-1.740;2023-07-30T12:44:21;99350.72;;;13.85;100.00
51452;BME280;37521;52.020;-1.740;2023-07-30T12:46:52;99351.56;;;13.73;100.00
51452;BME280;37521;52.020;-1.740;2023-07-30T12:49:23;99347.31;;;13.57;100.00
51452;BME280;37521;52.020;-1.740;2023-07-30T12:51:51;99347.41;;;13.43;100.00
51452;BME280;37521;52.020;-1.740;2023-07-30T12:54:20;99348.28;;;13.31;100.00